createdAt,value
2023-02-25T12:02:20.384Z,47.70
2023-02-25T12:13:19.931Z,48.00
2023-02-25T13:01:42.180Z,47.80
2023-02-25T13:29:19.229Z,47.50
2023-02-25T13:34:42.941Z,47.90
2023-02-25T13:55:54.893Z,47.80
2023-02-25T14:33:48.722Z,48.10
2023-02-25T14:39:31.290Z,47.50
2023-02-25T14:55:39.387Z,48.00
2023-02-25T15:21:46.304Z,48.20
2023-02-25T15:26:51.844Z,48.30
2023-02-25T15:37:37.409Z,48.30
2023-02-25T16:03:43.247Z,48.20
2023-02-25T16:14:08.224Z,48.40
2023-02-25T16:19:16.006Z,48.40
2023-02-25T16:24:19.045Z,48.80
2023-02-25T16:39:50.492Z,49.10
2023-02-25T16:45:06.741Z,48.90
2023-02-25T16:50:16.045Z,48.60
2023-02-25T16:55:23.865Z,49.10
2023-02-25T17:00:26.390Z,48.90
2023-02-25T17:20:48.323Z,48.10
2023-02-25T17:26:17.174Z,48.90
2023-02-25T17:31:27.070Z,48.80
2023-02-25T17:36:33.712Z,48.80
2023-02-25T17:41:36.793Z,48.80
2023-02-25T17:46:44.564Z,48.90
2023-02-25T17:51:51.620Z,48.80
2023-02-25T17:57:00.898Z,49.10
2023-02-25T18:02:23.953Z,48.60
2023-02-25T18:07:33.813Z,49.00
2023-02-25T18:12:39.126Z,49.40
2023-02-25T18:17:43.133Z,49.20
2023-02-25T18:22:48.423Z,49.00
2023-02-25T18:27:54.268Z,49.30
2023-02-25T18:32:59.248Z,49.70
2023-02-25T18:53:16.008Z,48.60
2023-02-25T18:58:22.607Z,50.00
2023-02-25T19:18:51.841Z,48.80
2023-02-25T19:24:19.661Z,49.70
2023-02-25T19:29:22.185Z,49.50
2023-02-25T19:34:25.064Z,49.70
2023-02-25T19:39:27.326Z,49.80
2023-02-25T19:44:29.543Z,49.70
2023-02-25T19:49:32.618Z,49.80
2023-02-25T19:54:34.876Z,49.90
2023-02-25T19:59:37.242Z,50.40
2023-02-25T20:04:39.796Z,50.60
2023-02-25T20:09:42.802Z,50.60
2023-02-25T20:14:45.020Z,50.60
2023-02-25T20:19:47.686Z,50.50
2023-02-25T20:24:51.126Z,50.70
2023-02-25T20:29:53.531Z,51.00
2023-02-25T20:34:55.948Z,51.00
2023-02-25T20:39:59.453Z,51.20
2023-02-25T20:45:02.484Z,51.10
2023-02-25T20:50:07.461Z,51.20
2023-02-25T20:55:10.587Z,51.30
2023-02-25T21:00:16.465Z,51.40
2023-02-25T21:05:18.828Z,51.20
2023-02-25T21:10:21.130Z,51.30
2023-02-25T21:15:23.428Z,51.60
2023-02-25T21:20:25.691Z,51.80
2023-02-25T21:25:28.042Z,52.00
2023-02-25T21:30:30.368Z,52.20
2023-02-25T21:35:32.604Z,52.80
2023-02-25T21:40:35.329Z,52.90
2023-02-25T21:45:38.735Z,52.80
2023-02-25T21:50:45.465Z,53.10
2023-02-25T21:55:48.214Z,52.90
2023-02-25T22:00:50.728Z,53.50
2023-02-25T22:05:52.987Z,53.50
2023-02-25T22:10:55.231Z,53.60
2023-02-25T22:16:00.095Z,53.70
2023-02-25T22:26:22.107Z,53.90
2023-02-25T22:31:25.050Z,54.10
2023-02-25T22:36:27.942Z,54.00
2023-02-25T22:41:30.441Z,54.10
2023-02-25T22:46:37.705Z,54.20
2023-02-25T22:51:44.758Z,54.30
2023-02-25T22:56:49.736Z,54.90
2023-02-25T23:01:51.960Z,54.40
2023-02-25T23:06:55.767Z,54.40
2023-02-25T23:11:59.961Z,54.40
2023-02-25T23:17:02.651Z,54.20
2023-02-25T23:22:04.943Z,54.10
2023-02-25T23:27:07.891Z,54.50
2023-02-25T23:32:10.114Z,54.40
2023-02-25T23:37:12.901Z,54.50
2023-02-25T23:42:16.032Z,54.70
2023-02-25T23:47:19.548Z,54.60
2023-02-25T23:52:21.839Z,54.80
2023-02-25T23:57:24.112Z,55.20
